createdAt,value
2022-10-05T00:00:17.392Z,99371.00
2022-10-05T00:03:12.266Z,99371.00
2022-10-05T00:06:00.726Z,99372.00
2022-10-05T00:08:48.213Z,99376.00
2022-10-05T00:11:36.838Z,99374.00
2022-10-05T00:14:31.936Z,99369.00
2022-10-05T00:17:27.541Z,99365.00
2022-10-05T00:20:20.645Z,99366.00
2022-10-05T00:23:17.928Z,99372.00
2022-10-05T00:26:23.436Z,99363.00
2022-10-05T00:29:29.001Z,99363.00
2022-10-05T00:32:17.560Z,99363.00
2022-10-05T00:35:05.822Z,99365.00
2022-10-05T00:37:55.887Z,99364.00
2022-10-05T00:41:11.626Z,99368.00
2022-10-05T00:44:47.120Z,99368.00
2022-10-05T00:48:01.371Z,99372.00
2022-10-05T00:51:07.567Z,99376.00
2022-10-05T00:54:18.067Z,99372.00
2022-10-05T00:58:03.415Z,99366.00
2022-10-05T01:01:32.950Z,99363.00
2022-10-05T01:04:41.651Z,99353.00
2022-10-05T01:07:42.936Z,99349.00
2022-10-05T01:11:08.436Z,99346.00
2022-10-05T01:14:47.286Z,99346.00
2022-10-05T01:17:54.436Z,99335.00
2022-10-05T01:20:50.251Z,99326.00
2022-10-05T01:24:17.751Z,99325.00
2022-10-05T01:27:32.600Z,99318.00
2022-10-05T01:30:22.330Z,99326.00
2022-10-05T01:33:27.249Z,99318.00
2022-10-05T01:36:51.995Z,99312.00
2022-10-05T01:40:11.135Z,99311.00
2022-10-05T01:43:35.126Z,99307.00
2022-10-05T01:47:03.770Z,99313.00
2022-10-05T01:50:05.222Z,99297.00
2022-10-05T01:53:36.914Z,99281.00
2022-10-05T01:56:46.749Z,99281.00
2022-10-05T02:00:03.515Z,99275.00
2022-10-05T02:03:40.272Z,99285.00
2022-10-05T02:06:37.785Z,99279.00
2022-10-05T02:09:39.760Z,99278.00
2022-10-05T02:12:33.861Z,99268.00
2022-10-05T02:15:37.533Z,99269.00
2022-10-05T02:18:34.250Z,99257.00
2022-10-05T02:21:23.689Z,99252.00
2022-10-05T02:24:22.671Z,99252.00
2022-10-05T02:27:15.574Z,99253.00
2022-10-05T02:30:10.493Z,99253.00
2022-10-05T02:33:19.382Z,99254.00
2022-10-05T02:36:27.002Z,99256.00
2022-10-05T02:39:40.045Z,99250.00
2022-10-05T02:42:46.290Z,99258.00
2022-10-05T02:45:59.459Z,99253.00
2022-10-05T02:49:23.755Z,99255.00
2022-10-05T02:52:56.615Z,99242.00
2022-10-05T02:55:55.220Z,99248.00
2022-10-05T02:59:07.356Z,99250.00
2022-10-05T03:02:20.915Z,99248.00
2022-10-05T03:05:38.087Z,99240.00
2022-10-05T03:09:01.652Z,99242.00
2022-10-05T03:12:10.710Z,99245.00
2022-10-05T03:15:35.490Z,99231.00
2022-10-05T03:19:10.419Z,99228.00
2022-10-05T03:22:22.230Z,99238.00
2022-10-05T03:25:52.745Z,99243.00
2022-10-05T03:28:55.520Z,99247.00
2022-10-05T03:32:15.715Z,99245.00
2022-10-05T03:35:15.339Z,99254.00
2022-10-05T03:38:19.410Z,99257.00
2022-10-05T03:41:32.711Z,99255.00
2022-10-05T03:44:54.250Z,99252.00
2022-10-05T03:48:15.465Z,99253.00
2022-10-05T03:51:27.455Z,99260.00
2022-10-05T03:54:38.005Z,99254.00
2022-10-05T03:57:32.345Z,99257.00
2022-10-05T04:00:27.030Z,99253.00
2022-10-05T04:03:39.825Z,99251.00
2022-10-05T04:06:38.941Z,99255.00
2022-10-05T04:09:45.760Z,99260.00
2022-10-05T04:12:42.810Z,99268.00
2022-10-05T04:15:41.978Z,99267.00
2022-10-05T04:18:43.816Z,99259.00
2022-10-05T04:21:57.941Z,99254.00
2022-10-05T04:24:52.096Z,99258.00
2022-10-05T04:27:51.110Z,99254.00
2022-10-05T04:30:45.390Z,99256.00
2022-10-05T04:33:33.488Z,99257.00
2022-10-05T04:36:32.988Z,99261.00
2022-10-05T04:39:44.241Z,99262.00
2022-10-05T04:42:46.965Z,99275.00
2022-10-05T04:45:43.120Z,99265.00
2022-10-05T04:49:21.948Z,99263.00
2022-10-05T04:52:35.826Z,99259.00
2022-10-05T04:55:57.338Z,99257.00
2022-10-05T04:59:22.786Z,99256.00
2022-10-05T05:02:31.337Z,99261.00
2022-10-05T05:05:31.786Z,99263.00
2022-10-05T05:09:09.510Z,99271.00
2022-10-05T05:12:32.623Z,99264.00
2022-10-05T05:15:54.855Z,99271.00
2022-10-05T05:19:06.670Z,99284.00
2022-10-05T05:22:15.180Z,99289.00
2022-10-05T05:25:17.815Z,99299.00
2022-10-05T05:28:34.735Z,99315.00
2022-10-05T05:31:37.591Z,99326.00
2022-10-05T05:34:46.565Z,99335.00
2022-10-05T05:37:58.287Z,99317.00
2022-10-05T05:41:04.477Z,99307.00
2022-10-05T05:44:10.768Z,99298.00
2022-10-05T05:47:35.400Z,99293.00
2022-10-05T05:50:56.501Z,99295.00
2022-10-05T05:54:20.918Z,99311.00
2022-10-05T05:57:32.449Z,99316.00
2022-10-05T06:00:31.865Z,99320.00
2022-10-05T06:03:43.429Z,99320.00
2022-10-05T06:06:41.461Z,99316.00
2022-10-05T06:09:44.935Z,99323.00
2022-10-05T06:12:43.112Z,99309.00
2022-10-05T06:15:44.916Z,99316.00
2022-10-05T06:18:35.821Z,99331.00
2022-10-05T06:22:15.211Z,99329.00
2022-10-05T06:25:15.858Z,99331.00
2022-10-05T06:28:16.472Z,99329.00
2022-10-05T06:31:40.644Z,99330.00
2022-10-05T06:34:38.451Z,99338.00
2022-10-05T06:38:12.488Z,99334.00
2022-10-05T06:41:33.206Z,99338.00
2022-10-05T06:44:37.816Z,99344.00
2022-10-05T06:48:02.840Z,99338.00
2022-10-05T06:51:25.597Z,99344.00
2022-10-05T06:54:37.788Z,99344.00
2022-10-05T06:58:11.356Z,99337.00
2022-10-05T07:01:38.927Z,99332.00
2022-10-05T07:05:01.211Z,99345.00
2022-10-05T07:08:04.756Z,99344.00
2022-10-05T07:11:29.811Z,99341.00
2022-10-05T07:14:38.648Z,99345.00
2022-10-05T07:17:52.735Z,99346.00
2022-10-05T07:21:02.626Z,99336.00
2022-10-05T07:24:05.892Z,99338.00
2022-10-05T07:27:22.805Z,99337.00
2022-10-05T07:30:18.989Z,99329.00
2022-10-05T07:33:39.604Z,99341.00
2022-10-05T07:40:21.183Z,99344.00
2022-10-05T07:43:14.811Z,99334.00
2022-10-05T07:46:28.550Z,99340.00
2022-10-05T07:49:41.998Z,99329.00
2022-10-05T07:52:54.701Z,99315.00
2022-10-05T07:55:58.030Z,99321.00
2022-10-05T07:58:58.355Z,99318.00
2022-10-05T08:01:53.402Z,99322.00
2022-10-05T08:05:18.351Z,99322.00
2022-10-05T08:08:14.255Z,99326.00
2022-10-05T08:11:17.266Z,99330.00
2022-10-05T08:14:16.753Z,99318.00
2022-10-05T08:17:32.013Z,99319.00
2022-10-05T08:20:52.190Z,99322.00
2022-10-05T08:24:11.941Z,99321.00
2022-10-05T08:27:10.217Z,99320.00
2022-10-05T08:30:04.530Z,99323.00
2022-10-05T08:33:05.118Z,99321.00
2022-10-05T08:36:17.038Z,99320.00
2022-10-05T08:39:16.175Z,99312.00
2022-10-05T08:42:58.871Z,99310.00
2022-10-05T08:46:26.676Z,99311.00
2022-10-05T08:49:43.596Z,99304.00
2022-10-05T08:53:08.595Z,99312.00
2022-10-05T08:56:19.789Z,99316.00
2022-10-05T08:59:44.826Z,99307.00
2022-10-05T09:03:08.291Z,99300.00
2022-10-05T09:06:43.832Z,99305.00
2022-10-05T09:09:37.186Z,99306.00
2022-10-05T09:12:58.670Z,99313.00
2022-10-05T09:16:04.880Z,99312.00
2022-10-05T09:19:37.000Z,99307.00
2022-10-05T09:23:12.574Z,99299.00
2022-10-05T09:26:52.926Z,99296.00
2022-10-05T09:30:53.517Z,99299.00
2022-10-05T09:34:26.093Z,99287.00
2022-10-05T09:38:08.911Z,99298.00
2022-10-05T09:41:26.677Z,99293.00
2022-10-05T09:44:57.645Z,99297.00
2022-10-05T09:47:59.750Z,99281.00
2022-10-05T09:51:17.990Z,99290.00
2022-10-05T09:54:20.384Z,99283.00
2022-10-05T09:57:22.443Z,99288.00
2022-10-05T10:01:33.264Z,99287.00
2022-10-05T10:04:45.585Z,99280.00
2022-10-05T10:08:28.186Z,99275.00
2022-10-05T10:11:49.599Z,99280.00
2022-10-05T10:14:49.602Z,99278.00
2022-10-05T10:18:03.852Z,99272.00
2022-10-05T10:21:35.128Z,99280.00
2022-10-05T10:24:38.215Z,99275.00
2022-10-05T10:27:46.256Z,99276.00
2022-10-05T10:31:01.296Z,99287.00
2022-10-05T10:34:23.251Z,99277.00
2022-10-05T10:37:42.742Z,99274.00
2022-10-05T10:41:09.926Z,99271.00
2022-10-05T10:44:18.953Z,99282.00
2022-10-05T10:47:18.126Z,99278.00
2022-10-05T10:50:24.212Z,99281.00
2022-10-05T10:53:56.206Z,99278.00
2022-10-05T10:56:56.545Z,99273.00
2022-10-05T11:00:08.579Z,99278.00
2022-10-05T11:03:30.926Z,99273.00
2022-10-05T11:06:32.973Z,99266.00
2022-10-05T11:09:30.050Z,99268.00
2022-10-05T11:12:54.584Z,99257.00
2022-10-05T11:15:55.944Z,99256.00
2022-10-05T11:19:40.630Z,99248.00
2022-10-05T11:23:16.286Z,99240.00
2022-10-05T11:26:28.631Z,99248.00
2022-10-05T11:29:51.976Z,99243.00
2022-10-05T11:33:11.446Z,99239.00
2022-10-05T11:36:37.826Z,99231.00
2022-10-05T11:39:46.375Z,99232.00
2022-10-05T11:43:20.194Z,99236.00
2022-10-05T11:46:16.825Z,99224.00
2022-10-05T11:49:33.241Z,99224.00
2022-10-05T11:52:46.770Z,99230.00
2022-10-05T11:56:16.619Z,99227.00
2022-10-05T11:59:36.766Z,99224.00
2022-10-05T12:02:43.045Z,99219.00
2022-10-05T12:05:54.768Z,99217.00
2022-10-05T12:08:59.971Z,99218.00
2022-10-05T12:12:04.201Z,99227.00
2022-10-05T12:15:08.543Z,99224.00
2022-10-05T12:18:18.030Z,99222.00
2022-10-05T12:21:33.921Z,99209.00
2022-10-05T12:24:55.050Z,99217.00
2022-10-05T12:27:48.724Z,99218.00
2022-10-05T12:31:08.127Z,99210.00
2022-10-05T12:34:07.538Z,99205.00
2022-10-05T12:37:31.317Z,99202.00
2022-10-05T12:40:52.009Z,99195.00
2022-10-05T12:44:49.250Z,99190.00
2022-10-05T12:48:14.174Z,99192.00
2022-10-05T12:51:17.215Z,99192.00
2022-10-05T12:54:40.863Z,99195.00
2022-10-05T12:57:47.998Z,99186.00
2022-10-05T13:01:07.874Z,99186.00
2022-10-05T13:04:24.310Z,99173.00
2022-10-05T13:07:45.865Z,99174.00
2022-10-05T13:10:48.287Z,99172.00
2022-10-05T13:14:35.030Z,99172.00
2022-10-05T13:17:59.832Z,99175.00
2022-10-05T13:21:04.103Z,99174.00
2022-10-05T13:23:57.527Z,99179.00
2022-10-05T13:27:10.693Z,99175.00
2022-10-05T13:30:13.684Z,99174.00
2022-10-05T13:33:26.358Z,99173.00
2022-10-05T13:36:54.983Z,99173.00
2022-10-05T13:39:56.532Z,99171.00
2022-10-05T13:43:10.376Z,99171.00
2022-10-05T13:46:21.833Z,99165.00
2022-10-05T13:49:28.970Z,99173.00
2022-10-05T13:52:16.400Z,99166.00
2022-10-05T13:55:28.385Z,99166.00
2022-10-05T13:58:39.456Z,99165.00
2022-10-05T14:01:58.459Z,99159.00
2022-10-05T14:04:51.045Z,99157.00
2022-10-05T14:07:50.990Z,99153.00
2022-10-05T14:10:45.944Z,99159.00
2022-10-05T14:13:48.110Z,99156.00
2022-10-05T14:16:58.606Z,99162.00
2022-10-05T14:19:51.150Z,99159.00
2022-10-05T14:22:42.875Z,99148.00
2022-10-05T14:25:34.491Z,99150.00
2022-10-05T14:28:31.130Z,99156.00
2022-10-05T14:31:37.178Z,99154.00
2022-10-05T14:34:36.522Z,99141.00
2022-10-05T14:37:33.045Z,99146.00
2022-10-05T14:40:44.130Z,99141.00
2022-10-05T14:43:32.890Z,99136.00
2022-10-05T14:46:29.319Z,99132.00
2022-10-05T14:49:36.370Z,99133.00
2022-10-05T14:52:34.771Z,99135.00
2022-10-05T14:55:52.153Z,99125.00
2022-10-05T14:59:04.517Z,99123.00
2022-10-05T15:02:12.787Z,99125.00
2022-10-05T15:05:32.631Z,99117.00
2022-10-05T15:08:51.770Z,99115.00
2022-10-05T15:12:02.170Z,99124.00
2022-10-05T15:15:25.540Z,99125.00
2022-10-05T15:18:49.167Z,99115.00
2022-10-05T15:22:13.365Z,99114.00
2022-10-05T15:25:15.465Z,99120.00
2022-10-05T15:28:17.801Z,99123.00
2022-10-05T15:31:25.620Z,99122.00
2022-10-05T15:34:44.970Z,99118.00
2022-10-05T15:37:42.612Z,99119.00
2022-10-05T15:40:48.025Z,99122.00
2022-10-05T15:44:06.468Z,99122.00
2022-10-05T15:47:17.906Z,99127.00
2022-10-05T15:50:37.782Z,99115.00
2022-10-05T15:54:15.716Z,99123.00
2022-10-05T15:57:20.071Z,99114.00
2022-10-05T16:00:15.081Z,99113.00
2022-10-05T16:03:37.360Z,99120.00
2022-10-05T16:06:54.013Z,99124.00
2022-10-05T16:10:15.912Z,99119.00
2022-10-05T16:13:38.440Z,99125.00
2022-10-05T16:16:31.853Z,99123.00
2022-10-05T16:19:42.525Z,99128.00
2022-10-05T16:22:49.507Z,99125.00
2022-10-05T16:26:00.666Z,99126.00
2022-10-05T16:29:04.086Z,99137.00
2022-10-05T16:32:18.880Z,99136.00
2022-10-05T16:35:25.115Z,99128.00
2022-10-05T16:38:31.780Z,99134.00
2022-10-05T16:41:54.406Z,99143.00
2022-10-05T16:45:08.255Z,99141.00
2022-10-05T16:48:23.407Z,99137.00
2022-10-05T16:51:36.171Z,99131.00
2022-10-05T16:54:46.818Z,99144.00
2022-10-05T16:58:10.690Z,99143.00
2022-10-05T17:01:32.475Z,99152.00
2022-10-05T17:04:54.553Z,99153.00
2022-10-05T17:08:26.749Z,99156.00
2022-10-05T17:11:56.286Z,99154.00
2022-10-05T17:15:11.522Z,99157.00
2022-10-05T17:18:20.095Z,99161.00
2022-10-05T17:21:25.335Z,99165.00
2022-10-05T17:24:19.262Z,99162.00
2022-10-05T17:27:53.594Z,99163.00
2022-10-05T17:30:58.947Z,99161.00
2022-10-05T17:34:26.471Z,99166.00
2022-10-05T17:37:35.231Z,99159.00
2022-10-05T17:40:38.886Z,99162.00
2022-10-05T17:43:35.831Z,99165.00
2022-10-05T17:46:46.064Z,99163.00
2022-10-05T17:50:17.588Z,99168.00
2022-10-05T17:53:41.895Z,99168.00
2022-10-05T17:56:56.332Z,99165.00
2022-10-05T17:59:46.516Z,99175.00
2022-10-05T18:02:40.174Z,99180.00
2022-10-05T18:05:31.161Z,99179.00
2022-10-05T18:08:30.263Z,99178.00
2022-10-05T18:11:29.211Z,99182.00
2022-10-05T18:14:27.525Z,99192.00
2022-10-05T18:17:15.605Z,99181.00
2022-10-05T18:20:27.975Z,99195.00
2022-10-05T18:23:25.854Z,99188.00
2022-10-05T18:27:00.647Z,99187.00
2022-10-05T18:30:05.432Z,99199.00
2022-10-05T18:32:59.717Z,99190.00
2022-10-05T18:36:18.501Z,99198.00
2022-10-05T18:39:36.420Z,99196.00
2022-10-05T18:42:35.885Z,99206.00
2022-10-05T18:45:41.846Z,99205.00
2022-10-05T18:49:21.590Z,99206.00
2022-10-05T18:52:18.935Z,99207.00
2022-10-05T18:55:28.771Z,99221.00
2022-10-05T18:58:38.065Z,99216.00
2022-10-05T19:02:16.732Z,99219.00
2022-10-05T19:05:35.827Z,99221.00
2022-10-05T19:08:35.930Z,99220.00
2022-10-05T19:11:41.216Z,99217.00
2022-10-05T19:15:12.407Z,99221.00
2022-10-05T19:18:23.864Z,99222.00
2022-10-05T19:21:44.550Z,99226.00
2022-10-05T19:24:47.516Z,99230.00
2022-10-05T19:27:55.568Z,99234.00
2022-10-05T19:30:57.761Z,99245.00
2022-10-05T19:34:06.720Z,99240.00
2022-10-05T19:37:24.455Z,99243.00
2022-10-05T19:40:50.050Z,99249.00
2022-10-05T19:43:58.453Z,99250.00
2022-10-05T19:47:05.871Z,99258.00
2022-10-05T19:49:55.397Z,99266.00
2022-10-05T19:52:49.857Z,99257.00
2022-10-05T19:55:47.216Z,99263.00
2022-10-05T19:58:40.105Z,99261.00
2022-10-05T20:01:37.003Z,99270.00
2022-10-05T20:04:45.595Z,99268.00
2022-10-05T20:07:34.525Z,99279.00
2022-10-05T20:10:29.607Z,99272.00
2022-10-05T20:13:23.834Z,99279.00
2022-10-05T20:16:36.247Z,99286.00
2022-10-05T20:19:49.705Z,99281.00
2022-10-05T20:22:46.341Z,99289.00
2022-10-05T20:25:37.720Z,99289.00
2022-10-05T20:28:34.318Z,99285.00
2022-10-05T20:31:22.324Z,99299.00
2022-10-05T20:34:09.807Z,99297.00
2022-10-05T20:36:57.635Z,99304.00
2022-10-05T20:39:45.247Z,99300.00
2022-10-05T20:42:32.743Z,99308.00
2022-10-05T20:45:20.287Z,99314.00
2022-10-05T20:48:08.051Z,99321.00
2022-10-05T20:50:55.626Z,99321.00
2022-10-05T20:53:45.946Z,99332.00
2022-10-05T20:56:34.395Z,99334.00
2022-10-05T20:59:24.435Z,99344.00
2022-10-05T21:02:11.921Z,99346.00
2022-10-05T21:04:59.507Z,99357.00
2022-10-05T21:07:46.947Z,99353.00
2022-10-05T21:10:36.396Z,99352.00
2022-10-05T21:13:24.751Z,99348.00
2022-10-05T21:16:18.735Z,99353.00
2022-10-05T21:19:10.661Z,99353.00
2022-10-05T21:21:59.519Z,99353.00
2022-10-05T21:24:48.505Z,99353.00
2022-10-05T21:27:36.041Z,99362.00
2022-10-05T21:30:23.500Z,99353.00
2022-10-05T21:33:11.141Z,99359.00
2022-10-05T21:35:58.656Z,99356.00
2022-10-05T21:38:50.897Z,99355.00
2022-10-05T21:41:38.390Z,99350.00
2022-10-05T21:44:25.857Z,99356.00
2022-10-05T21:47:13.401Z,99360.00
2022-10-05T21:50:03.992Z,99360.00
2022-10-05T21:52:52.247Z,99360.00
2022-10-05T21:55:46.222Z,99364.00
2022-10-05T21:58:34.087Z,99360.00
2022-10-05T22:01:22.937Z,99367.00
2022-10-05T22:04:10.825Z,99364.00
2022-10-05T22:06:58.295Z,99369.00
2022-10-05T22:09:52.311Z,99376.00
2022-10-05T22:12:41.738Z,99376.00
2022-10-05T22:15:32.521Z,99372.00
2022-10-05T22:18:20.081Z,99374.00
2022-10-05T22:21:12.108Z,99376.00
2022-10-05T22:24:00.371Z,99380.00
2022-10-05T22:26:51.629Z,99385.00
2022-10-05T22:29:40.091Z,99380.00
2022-10-05T22:32:27.701Z,99388.00
2022-10-05T22:35:15.291Z,99386.00
2022-10-05T22:38:06.220Z,99396.00
2022-10-05T22:40:53.707Z,99386.00
2022-10-05T22:43:41.331Z,99392.00
2022-10-05T22:46:28.977Z,99398.00
2022-10-05T22:49:16.561Z,99402.00
2022-10-05T22:52:04.342Z,99401.00
2022-10-05T22:54:52.108Z,99395.00
2022-10-05T22:57:43.467Z,99402.00
2022-10-05T23:00:53.381Z,99399.00
2022-10-05T23:03:39.470Z,99400.00
2022-10-05T23:06:27.148Z,99396.00
2022-10-05T23:09:14.985Z,99406.00
2022-10-05T23:12:02.455Z,99404.00
2022-10-05T23:14:49.967Z,99418.00
2022-10-05T23:17:39.333Z,99411.00
2022-10-05T23:20:27.081Z,99415.00
2022-10-05T23:23:14.610Z,99413.00
2022-10-05T23:26:04.180Z,99414.00
2022-10-05T23:28:52.861Z,99423.00
2022-10-05T23:31:40.370Z,99421.00
2022-10-05T23:34:27.770Z,99420.00
2022-10-05T23:37:17.795Z,99427.00
2022-10-05T23:40:08.626Z,99431.00
2022-10-05T23:42:56.230Z,99431.00
2022-10-05T23:45:47.929Z,99432.00
2022-10-05T23:48:39.571Z,99441.00
2022-10-05T23:51:28.502Z,99438.00
2022-10-05T23:54:16.411Z,99453.00
2022-10-05T23:57:04.026Z,99445.00
2022-10-05T23:59:51.515Z,99453.00
